Time;durP1;ratioP1;P1;durP2;ratioP2;P2;SDS_P1;SDS_P2;PMS_P1;PMS_P2;Temp;Humidity;BMP_temperature;BMP_pressure;BME280_temperature;BME280_humidity;BME280_pressure;Samples;Min_cycle;Max_cycle;Signal;HPM_P1;HPM_P2
2023/10/29 00:02:24;;;;;;;0.93;0.60;;;12.80;99.90;;;;;;5095650;28;20030;-82
2023/10/29 00:04:50;;;;;;;2.75;0.88;;;12.80;99.90;;;;;;5095755;28;20028;-81
2023/10/29 00:07:15;;;;;;;1.58;0.50;;;12.70;99.90;;;;;;5095371;28;20024;-82
2023/10/29 00:09:41;;;;;;;1.38;0.68;;;12.70;99.90;;;;;;5095727;28;20020;-81
2023/10/29 00:12:07;;;;;;;3.28;0.77;;;12.70;99.90;;;;;;5095275;28;20358;-82
2023/10/29 00:14:32;;;;;;;5.50;1.02;;;12.60;99.90;;;;;;5095487;28;20046;-81
2023/10/29 00:16:58;;;;;;;2.28;0.63;;;12.70;99.90;;;;;;5096376;28;20032;-82
2023/10/29 00:19:24;;;;;;;1.40;0.70;;;12.70;99.90;;;;;;5095645;28;20071;-82
2023/10/29 00:21:49;;;;;;;2.22;0.77;;;12.70;99.90;;;;;;5095441;28;20076;-81
2023/10/29 00:24:15;;;;;;;2.38;0.70;;;12.70;99.90;;;;;;5095174;28;20032;-81
2023/10/29 00:26:41;;;;;;;4.93;0.80;;;12.70;99.90;;;;;;5095534;28;20066;-81
2023/10/29 00:29:07;;;;;;;0.93;0.60;;;12.70;99.90;;;;;;5095023;28;20024;-82
2023/10/29 00:31:33;;;;;;;2.40;0.70;;;12.70;99.90;;;;;;5095145;28;20024;-81
2023/10/29 00:33:59;;;;;;;2.42;0.80;;;12.70;99.90;;;;;;5094764;28;20365;-81
2023/10/29 00:36:25;;;;;;;3.65;0.70;;;12.70;99.90;;;;;;5094469;28;20055;-82
2023/10/29 00:38:50;;;;;;;1.52;0.63;;;12.70;99.90;;;;;;5096236;28;20024;-81
2023/10/29 00:41:16;;;;;;;4.35;0.60;;;12.70;99.90;;;;;;5095601;28;20027;-82
2023/10/29 00:43:42;;;;;;;2.55;0.80;;;12.70;99.90;;;;;;5094888;28;20047;-81
2023/10/29 00:46:10;;;;;;;4.25;0.80;;;12.70;99.90;;;;;;5094301;28;20504;-82
2023/10/29 00:48:36;;;;;;;3.97;0.63;;;12.60;99.90;;;;;;5096083;28;20035;-81
2023/10/29 00:51:03;;;;;;;1.80;0.80;;;12.70;99.90;;;;;;5094167;28;20074;-82
2023/10/29 00:53:29;;;;;;;3.63;0.80;;;12.70;99.90;;;;;;5095839;28;20104;-81
2023/10/29 00:55:57;;;;;;;2.55;0.73;;;12.60;99.90;;;;;;5094718;28;20123;-81
2023/10/29 00:58:23;;;;;;;1.23;0.70;;;12.70;99.90;;;;;;5094271;28;20028;-81
2023/10/29 01:00:49;;;;;;;2.20;0.98;;;12.70;99.90;;;;;;5094746;28;20031;-81
2023/10/29 01:03:16;;;;;;;1.25;0.55;;;12.70;99.90;;;;;;5094079;28;20016;-81
2023/10/29 01:05:41;;;;;;;2.53;1.05;;;12.70;99.90;;;;;;5095037;28;20036;-80
2023/10/29 01:08:07;;;;;;;0.95;0.50;;;12.70;99.90;;;;;;5095440;28;20046;-81
2023/10/29 01:10:33;;;;;;;3.53;0.93;;;12.70;99.90;;;;;;5094383;28;20035;-81
2023/10/29 01:12:59;;;;;;;1.70;0.50;;;12.60;99.90;;;;;;5095598;28;20093;-80
2023/10/29 01:15:25;;;;;;;2.90;0.60;;;12.60;99.90;;;;;;5093463;28;20481;-81
2023/10/29 01:17:51;;;;;;;3.92;0.93;;;12.60;99.90;;;;;;5094382;28;20058;-81
2023/10/29 01:20:16;;;;;;;4.78;0.90;;;12.60;99.90;;;;;;5094806;28;20085;-81
2023/10/29 01:22:43;;;;;;;1.58;0.45;;;12.60;99.90;;;;;;5095220;28;20525;-80
2023/10/29 01:25:10;;;;;;;1.27;0.50;;;12.60;99.90;;;;;;5093612;28;20024;-81
2023/10/29 01:27:38;;;;;;;5.05;0.70;;;12.70;99.90;;;;;;5095253;28;20016;-81
2023/10/29 01:30:05;;;;;;;1.63;0.50;;;12.70;99.90;;;;;;5093738;28;20031;-82
2023/10/29 01:32:32;;;;;;;0.82;0.40;;;12.70;99.90;;;;;;5095287;28;20024;-80
2023/10/29 01:34:58;;;;;;;1.52;0.55;;;12.70;99.90;;;;;;5093992;28;20032;-81
2023/10/29 01:37:24;;;;;;;1.25;0.60;;;12.70;99.90;;;;;;5094176;28;20057;-81
2023/10/29 01:39:49;;;;;;;3.03;0.43;;;12.70;99.90;;;;;;5094077;28;20032;-81
2023/10/29 01:42:15;;;;;;;1.33;0.50;;;12.70;99.90;;;;;;5093652;28;20404;-81
2023/10/29 01:44:40;;;;;;;4.57;0.90;;;12.70;99.90;;;;;;5093623;28;20026;-81
2023/10/29 01:47:06;;;;;;;3.78;0.40;;;12.70;99.90;;;;;;5093623;28;20060;-81
2023/10/29 01:49:33;;;;;;;3.15;0.88;;;12.80;99.90;;;;;;5095089;28;20024;-81
2023/10/29 01:51:59;;;;;;;1.50;0.40;;;12.70;99.90;;;;;;5094902;28;20107;-81
2023/10/29 01:54:24;;;;;;;4.35;0.57;;;12.70;99.90;;;;;;5094457;28;20499;-80
2023/10/29 01:56:50;;;;;;;1.90;0.45;;;12.70;99.90;;;;;;5094001;28;20103;-80
2023/10/29 01:59:15;;;;;;;2.47;0.50;;;12.70;99.90;;;;;;5093185;28;20021;-81
2023/10/29 02:01:42;;;;;;;1.40;0.60;;;12.70;99.90;;;;;;5093605;28;20388;-81
2023/10/29 02:04:09;;;;;;;3.58;0.40;;;12.70;99.90;;;;;;5093061;28;20028;-81
2023/10/29 02:06:38;;;;;;;2.35;0.47;;;12.60;99.90;;;;;;5094640;28;20032;-81
2023/10/29 02:09:05;;;;;;;0.63;0.40;;;12.60;99.90;;;;;;5093402;28;20440;-81
2023/10/29 02:11:31;;;;;;;1.73;0.32;;;12.60;99.90;;;;;;5093411;28;20024;-80
2023/10/29 02:13:56;;;;;;;2.85;1.48;;;12.60;99.90;;;;;;5093614;28;20035;-81
2023/10/29 02:16:23;;;;;;;0.82;0.40;;;12.60;99.90;;;;;;5094227;28;20032;-81
2023/10/29 02:18:49;;;;;;;1.70;0.40;;;12.70;99.90;;;;;;5094413;28;20119;-81
2023/10/29 02:21:15;;;;;;;0.63;0.32;;;12.70;99.90;;;;;;5092869;28;20056;-81
2023/10/29 02:23:40;;;;;;;1.02;0.40;;;12.80;99.90;;;;;;5093405;28;20036;-82
2023/10/29 02:26:06;;;;;;;3.63;0.50;;;12.80;99.90;;;;;;5092946;28;20035;-81
2023/10/29 02:28:32;;;;;;;1.95;0.47;;;12.80;99.90;;;;;;5093095;28;20024;-81
2023/10/29 02:30:57;;;;;;;2.70;0.43;;;12.70;99.90;;;;;;5094205;28;20051;-81
2023/10/29 02:33:23;;;;;;;0.70;0.50;;;12.80;99.90;;;;;;5092666;28;20020;-81
2023/10/29 02:35:49;;;;;;;2.20;0.30;;;12.80;99.90;;;;;;5093200;28;20067;-81
2023/10/29 02:38:16;;;;;;;0.88;0.40;;;12.80;99.90;;;;;;5092955;28;20027;-81
2023/10/29 02:40:42;;;;;;;1.75;0.88;;;12.80;99.90;;;;;;5092953;28;20051;-81
2023/10/29 02:43:08;;;;;;;5.00;1.80;;;12.80;99.90;;;;;;5092696;28;20024;-81
2023/10/29 02:45:34;;;;;;;3.40;0.90;;;12.80;99.90;;;;;;5093280;28;20123;-80
2023/10/29 02:47:59;;;;;;;3.05;0.60;;;12.80;99.90;;;;;;5092859;28;20028;-81
2023/10/29 02:50:25;;;;;;;0.95;0.50;;;12.80;99.90;;;;;;5093494;28;20154;-80
2023/10/29 02:52:51;;;;;;;1.40;0.40;;;12.80;99.90;;;;;;5092946;28;20069;-80
2023/10/29 02:55:16;;;;;;;1.55;0.82;;;12.90;99.90;;;;;;5093413;28;20024;-81
2023/10/29 02:57:42;;;;;;;1.10;0.40;;;12.90;99.90;;;;;;5096164;28;20035;-80
2023/10/29 03:00:08;;;;;;;3.78;0.73;;;12.90;99.90;;;;;;5097385;28;20515;-81
2023/10/29 03:02:34;;;;;;;1.52;0.50;;;12.90;99.90;;;;;;5096782;28;20031;-81
2023/10/29 03:04:59;;;;;;;2.35;0.85;;;12.90;99.90;;;;;;5096991;28;20020;-81
2023/10/29 03:07:25;;;;;;;1.90;0.32;;;12.90;99.90;;;;;;5096164;28;20473;-81
2023/10/29 03:09:51;;;;;;;0.45;0.30;;;12.90;99.90;;;;;;5096368;28;20020;-81
2023/10/29 03:12:16;;;;;;;1.25;0.60;;;12.90;99.90;;;;;;5096226;28;20058;-81
2023/10/29 03:14:42;;;;;;;1.17;0.30;;;12.90;99.90;;;;;;5096408;28;20454;-80
2023/10/29 03:17:07;;;;;;;3.42;0.50;;;12.80;99.90;;;;;;5097436;28;20044;-81
2023/10/29 03:19:33;;;;;;;0.60;0.40;;;12.80;99.90;;;;;;5097225;28;20032;-81
2023/10/29 03:22:01;;;;;;;2.47;0.30;;;12.80;99.90;;;;;;5096577;28;20028;-81
2023/10/29 03:24:27;;;;;;;1.10;0.40;;;12.80;99.90;;;;;;5097133;28;20024;-81
2023/10/29 03:26:53;;;;;;;1.65;0.52;;;12.80;99.90;;;;;;5097440;28;20028;-81
2023/10/29 03:29:18;;;;;;;1.80;0.40;;;12.80;99.90;;;;;;5095612;28;20024;-81
2023/10/29 03:31:44;;;;;;;2.15;0.55;;;12.80;99.90;;;;;;5096480;28;20081;-80
2023/10/29 03:34:11;;;;;;;1.05;0.65;;;12.90;99.90;;;;;;5096157;28;20024;-80
2023/10/29 03:36:37;;;;;;;2.33;0.50;;;12.90;99.90;;;;;;5095914;28;20476;-81
2023/10/29 03:39:02;;;;;;;4.22;0.98;;;12.90;99.90;;;;;;5097292;28;20020;-81
2023/10/29 03:41:28;;;;;;;2.53;0.80;;;12.90;99.90;;;;;;5095668;28;20383;-81
2023/10/29 03:43:53;;;;;;;1.90;0.80;;;12.90;99.90;;;;;;5097288;28;20032;-80
2023/10/29 03:46:19;;;;;;;2.55;0.70;;;12.80;99.90;;;;;;5095574;28;20043;-81
2023/10/29 03:48:45;;;;;;;2.20;0.77;;;12.80;99.90;;;;;;5096095;28;20032;-80
2023/10/29 03:51:14;;;;;;;2.17;0.52;;;12.80;99.90;;;;;;5097118;28;20035;-80
2023/10/29 03:53:40;;;;;;;3.45;0.90;;;12.80;99.90;;;;;;5095933;28;20059;-82
2023/10/29 03:56:06;;;;;;;2.95;0.85;;;12.70;99.90;;;;;;5096185;28;20070;-81
2023/10/29 03:58:32;;;;;;;1.77;0.80;;;12.70;99.90;;;;;;5096492;28;20214;-81
2023/10/29 04:00:57;;;;;;;2.47;1.05;;;12.70;99.90;;;;;;5096818;28;20465;-81
2023/10/29 04:03:23;;;;;;;0.80;0.68;;;12.80;99.90;;;;;;5095431;28;20024;-82
2023/10/29 04:05:49;;;;;;;4.60;1.00;;;12.80;99.90;;;;;;5096198;28;20028;-81
2023/10/29 04:08:16;;;;;;;1.25;0.80;;;12.80;99.90;;;;;;5095890;28;20078;-82
2023/10/29 04:10:42;;;;;;;1.30;0.80;;;12.80;99.90;;;;;;5096477;28;20017;-81
2023/10/29 04:13:07;;;;;;;3.15;1.00;;;12.80;99.90;;;;;;5095567;28;20035;-81
2023/10/29 04:15:33;;;;;;;1.15;0.70;;;12.80;99.90;;;;;;5096340;28;20063;-80
2023/10/29 04:17:59;;;;;;;2.72;0.80;;;12.70;99.90;;;;;;5095441;28;20028;-80
2023/10/29 04:20:24;;;;;;;1.23;0.63;;;12.70;99.90;;;;;;5095028;28;20024;-81
2023/10/29 04:22:50;;;;;;;2.78;0.73;;;12.70;99.90;;;;;;5095312;28;20460;-81
2023/10/29 04:25:15;;;;;;;2.45;0.88;;;12.70;99.90;;;;;;5096151;28;20032;-81
2023/10/29 04:27:41;;;;;;;2.30;0.63;;;12.70;99.90;;;;;;5095316;28;20470;-81
2023/10/29 04:30:07;;;;;;;2.90;0.63;;;12.70;99.90;;;;;;5095242;28;20017;-82
2023/10/29 04:32:32;;;;;;;1.15;0.60;;;12.70;99.90;;;;;;5094619;28;20024;-82
2023/10/29 04:34:58;;;;;;;4.82;0.90;;;12.70;99.90;;;;;;5095035;28;20024;-81
2023/10/29 04:37:24;;;;;;;2.63;0.50;;;12.80;99.90;;;;;;5094652;28;20089;-81
2023/10/29 04:39:50;;;;;;;1.38;0.60;;;12.80;99.90;;;;;;5096143;28;20028;-81
2023/10/29 04:42:16;;;;;;;2.05;0.60;;;12.80;99.90;;;;;;5094487;28;20024;-82
2023/10/29 04:44:42;;;;;;;0.90;0.57;;;12.80;99.90;;;;;;5095992;28;20016;-81
2023/10/29 04:47:08;;;;;;;2.95;0.75;;;12.70;99.90;;;;;;5095038;28;20085;-81
2023/10/29 04:49:33;;;;;;;3.13;0.90;;;12.70;99.90;;;;;;5095683;28;20028;-80
2023/10/29 04:51:59;;;;;;;2.10;0.73;;;12.70;99.90;;;;;;5096153;28;20034;-81
2023/10/29 04:54:24;;;;;;;3.55;0.47;;;12.70;99.90;;;;;;5094445;28;20484;-82
2023/10/29 04:56:50;;;;;;;3.17;0.75;;;12.70;99.90;;;;;;5095824;28;20396;-82
2023/10/29 04:59:16;;;;;;;1.73;0.50;;;12.70;99.90;;;;;;5094340;28;20024;-82
2023/10/29 05:01:41;;;;;;;1.48;0.70;;;12.60;99.90;;;;;;5095795;28;20028;-82
2023/10/29 05:04:07;;;;;;;0.90;0.60;;;12.70;99.90;;;;;;5094819;28;20020;-82
2023/10/29 05:06:32;;;;;;;2.85;0.80;;;12.60;99.90;;;;;;5095178;28;20484;-82
2023/10/29 05:08:58;;;;;;;1.70;0.55;;;12.70;99.90;;;;;;5094674;28;20028;-82
2023/10/29 05:11:24;;;;;;;2.22;0.70;;;12.60;99.90;;;;;;5095398;28;20020;-82
2023/10/29 05:13:49;;;;;;;2.13;0.70;;;12.60;99.90;;;;;;5094625;28;20048;-82
2023/10/29 05:16:15;;;;;;;3.45;0.80;;;12.60;99.90;;;;;;5095720;28;20040;-81
2023/10/29 05:18:41;;;;;;;1.52;0.63;;;12.60;99.90;;;;;;5093996;28;20094;-82
2023/10/29 05:21:07;;;;;;;4.43;1.05;;;12.60;99.90;;;;;;5094470;28;20050;-81
2023/10/29 05:23:38;;;;;;;2.22;0.60;;;12.60;99.90;;;;;;5094001;28;20475;-82
2023/10/29 05:26:03;;;;;;;2.55;0.57;;;12.60;99.90;;;;;;5095271;28;20024;-80
2023/10/29 05:28:29;;;;;;;2.78;1.00;;;12.60;99.90;;;;;;5093688;28;20076;-82
2023/10/29 05:30:55;;;;;;;2.50;1.05;;;12.60;99.90;;;;;;5095349;28;20031;-81
2023/10/29 05:33:20;;;;;;;1.95;1.00;;;12.60;99.90;;;;;;5093666;28;20028;-81
2023/10/29 05:35:46;;;;;;;4.63;1.10;;;12.60;99.90;;;;;;5093734;28;20032;-81
2023/10/29 05:38:12;;;;;;;1.95;0.80;;;12.60;99.90;;;;;;5095138;28;20049;-81
2023/10/29 05:40:38;;;;;;;2.55;0.80;;;12.60;99.90;;;;;;5094578;28;20658;-83
2023/10/29 05:43:03;;;;;;;1.75;0.77;;;12.60;99.90;;;;;;5094089;28;20028;-82
2023/10/29 05:45:29;;;;;;;0.95;0.70;;;12.60;99.90;;;;;;5094636;28;20038;-82
2023/10/29 05:47:56;;;;;;;1.65;0.90;;;12.60;99.90;;;;;;5093792;28;20025;-82
2023/10/29 05:50:22;;;;;;;1.73;0.90;;;12.60;99.90;;;;;;5094325;28;20021;-82
2023/10/29 05:52:49;;;;;;;2.25;0.90;;;12.50;99.90;;;;;;5094013;28;20469;-81
2023/10/29 05:55:14;;;;;;;1.17;0.80;;;12.50;99.90;;;;;;5093892;28;20046;-81
2023/10/29 05:57:40;;;;;;;4.30;0.90;;;12.50;99.90;;;;;;5092701;28;20032;-82
2023/10/29 06:00:07;;;;;;;1.63;0.80;;;12.50;99.90;;;;;;5094787;28;20027;-82
2023/10/29 06:02:33;;;;;;;1.30;0.80;;;12.60;99.90;;;;;;5093175;28;20035;-81
2023/10/29 06:04:58;;;;;;;2.22;0.80;;;12.60;99.90;;;;;;5093519;28;20119;-82
2023/10/29 06:07:24;;;;;;;4.68;1.25;;;12.60;99.90;;;;;;5093244;28;20023;-83
2023/10/29 06:09:50;;;;;;;3.78;0.93;;;12.60;99.90;;;;;;5093522;28;20047;-81
2023/10/29 06:12:16;;;;;;;1.90;0.82;;;12.60;99.90;;;;;;5093500;28;20107;-80
2023/10/29 06:14:45;;;;;;;1.35;0.80;;;12.60;99.90;;;;;;5092982;28;20028;-82
2023/10/29 06:17:10;;;;;;;3.85;0.68;;;12.60;99.90;;;;;;5093348;28;20028;-81
2023/10/29 06:19:36;;;;;;;1.50;0.70;;;12.60;99.90;;;;;;5092642;28;20028;-82
2023/10/29 06:22:05;;;;;;;1.55;0.70;;;12.60;99.90;;;;;;5093956;28;20035;-82
2023/10/29 06:24:31;;;;;;;5.97;0.80;;;12.60;99.90;;;;;;5092676;28;20052;-82
2023/10/29 06:26:57;;;;;;;2.47;0.70;;;12.60;99.90;;;;;;5094371;28;20059;-82
2023/10/29 06:29:22;;;;;;;2.25;0.70;;;12.60;99.90;;;;;;5093643;28;20020;-82
2023/10/29 06:31:48;;;;;;;3.17;0.85;;;12.60;99.90;;;;;;5092947;28;20089;-82
2023/10/29 06:34:13;;;;;;;1.20;0.70;;;12.60;99.90;;;;;;5093070;28;20024;-82
2023/10/29 06:36:39;;;;;;;4.40;1.08;;;12.60;99.90;;;;;;5092164;28;20056;-81
2023/10/29 06:39:05;;;;;;;1.50;0.88;;;12.60;99.90;;;;;;5083373;28;20435;-81
2023/10/29 06:41:30;;;;;;;3.53;1.13;;;12.70;99.90;;;;;;5101275;28;20453;-82
2023/10/29 06:43:56;;;;;;;3.13;1.23;;;12.70;99.90;;;;;;5093745;28;20381;-82
2023/10/29 06:46:21;;;;;;;2.65;1.10;;;12.70;99.90;;;;;;5103320;28;20023;-80
2023/10/29 06:48:47;;;;;;;4.55;1.40;;;12.80;99.90;;;;;;5104567;28;20425;-82
2023/10/29 06:51:18;;;;;;;2.40;1.10;;;12.80;99.90;;;;;;5105171;28;20024;-82
2023/10/29 06:53:44;;;;;;;1.95;1.05;;;12.80;99.90;;;;;;5100008;28;20048;-80
2023/10/29 06:56:10;;;;;;;1.33;1.00;;;12.80;99.90;;;;;;5091878;28;20116;-81
2023/10/29 06:58:35;;;;;;;2.40;1.23;;;12.90;99.90;;;;;;5092296;28;20485;-80
2023/10/29 07:01:08;;;;;;;4.28;1.20;;;12.90;99.90;;;;;;5092764;28;20024;-80
2023/10/29 07:03:34;;;;;;;1.52;1.15;;;12.80;99.90;;;;;;5091944;28;20457;-80
2023/10/29 07:06:11;;;;;;;2.05;0.80;;;12.80;99.90;;;;;;5092219;28;20063;-80
2023/10/29 07:08:37;;;;;;;1.17;0.80;;;12.80;99.90;;;;;;5092105;28;20201;-80
2023/10/29 07:11:04;;;;;;;2.88;0.98;;;12.80;99.90;;;;;;5092412;28;20081;-79
2023/10/29 07:13:30;;;;;;;1.15;0.85;;;12.80;99.90;;;;;;5091800;28;20028;-80
2023/10/29 07:15:57;;;;;;;3.13;1.23;;;12.90;99.90;;;;;;5091998;28;20032;-79
2023/10/29 07:18:23;;;;;;;4.60;1.08;;;12.90;99.90;;;;;;5092568;28;20032;-79
2023/10/29 07:20:58;;;;;;;1.80;1.00;;;12.80;99.90;;;;;;5092922;28;20028;-80
2023/10/29 07:23:24;;;;;;;1.50;1.10;;;12.80;99.90;;;;;;5092166;28;20027;-80
2023/10/29 07:25:50;;;;;;;2.00;1.30;;;12.80;99.90;;;;;;5092631;28;20028;-79
2023/10/29 07:28:17;;;;;;;3.95;0.98;;;12.80;99.90;;;;;;5093472;28;20104;-78
2023/10/29 07:30:43;;;;;;;3.63;1.20;;;12.80;99.90;;;;;;5091834;28;20024;-79
2023/10/29 07:33:11;;;;;;;1.98;1.25;;;12.90;99.90;;;;;;5092549;28;20035;-78
2023/10/29 07:35:38;;;;;;;3.33;1.10;;;12.80;99.90;;;;;;5092729;28;20031;-77
2023/10/29 07:38:05;;;;;;;4.70;1.02;;;12.80;99.90;;;;;;5093221;28;20048;-79
2023/10/29 07:40:30;;;;;;;4.60;1.00;;;12.80;99.90;;;;;;5091827;28;20053;-79
2023/10/29 07:42:57;;;;;;;4.15;0.93;;;12.80;99.90;;;;;;5093783;28;20465;-78
2023/10/29 07:45:22;;;;;;;2.60;1.25;;;12.80;99.90;;;;;;5096698;28;20028;-79
2023/10/29 07:47:48;;;;;;;2.92;1.27;;;12.80;99.90;;;;;;5096762;28;20488;-78
2023/10/29 07:50:14;;;;;;;4.25;1.13;;;12.80;99.90;;;;;;5096068;28;20031;-79
2023/10/29 07:52:39;;;;;;;2.42;1.05;;;12.80;99.90;;;;;;5096523;28;20028;-80
2023/10/29 07:55:07;;;;;;;1.70;0.73;;;12.80;99.90;;;;;;5095777;28;20031;-80
2023/10/29 07:57:33;;;;;;;3.42;1.10;;;12.80;99.90;;;;;;5096518;28;20035;-81
2023/10/29 07:59:58;;;;;;;1.50;0.90;;;12.80;99.90;;;;;;5095754;28;20035;-80
2023/10/29 08:02:24;;;;;;;1.33;0.75;;;12.80;99.90;;;;;;5095922;28;20028;-79
2023/10/29 08:04:49;;;;;;;2.15;0.80;;;12.80;99.90;;;;;;5096614;28;20067;-80
2023/10/29 08:07:15;;;;;;;0.98;0.77;;;12.80;99.90;;;;;;5096037;28;20064;-79
2023/10/29 08:09:41;;;;;;;1.63;0.70;;;12.80;99.90;;;;;;5096294;28;20021;-80
2023/10/29 08:12:06;;;;;;;2.50;0.80;;;12.80;99.90;;;;;;5095910;28;20027;-80
2023/10/29 08:14:32;;;;;;;1.20;0.82;;;12.80;99.90;;;;;;5095120;28;20472;-80
2023/10/29 08:16:58;;;;;;;2.40;0.73;;;12.80;99.90;;;;;;5095526;28;20112;-81
2023/10/29 08:19:24;;;;;;;2.05;1.05;;;12.80;99.90;;;;;;5095786;28;20043;-80
2023/10/29 08:21:49;;;;;;;1.05;0.52;;;12.80;99.90;;;;;;5096156;28;20031;-81
2023/10/29 08:24:15;;;;;;;1.20;0.75;;;12.80;99.90;;;;;;5096549;28;20373;-80
2023/10/29 08:26:40;;;;;;;1.30;0.63;;;12.90;99.90;;;;;;5095989;28;20575;-80
2023/10/29 08:29:06;;;;;;;1.48;0.77;;;12.90;99.90;;;;;;5095296;28;20028;-80
2023/10/29 08:31:32;;;;;;;2.55;0.88;;;12.90;99.90;;;;;;5094854;28;20024;-80
2023/10/29 08:33:57;;;;;;;1.50;0.80;;;13.00;99.90;;;;;;5094999;28;20027;-80
2023/10/29 08:36:24;;;;;;;1.65;0.70;;;13.10;99.90;;;;;;5094831;28;20052;-79
2023/10/29 08:38:49;;;;;;;3.70;0.90;;;13.10;99.90;;;;;;5095702;28;20026;-80
2023/10/29 08:41:16;;;;;;;2.40;0.70;;;13.10;99.90;;;;;;5094879;28;20115;-80
2023/10/29 08:43:42;;;;;;;2.80;0.80;;;13.10;99.90;;;;;;5095609;28;20302;-79
2023/10/29 08:46:08;;;;;;;1.88;1.00;;;13.10;99.90;;;;;;5095101;28;20462;-80
2023/10/29 08:48:34;;;;;;;1.48;0.75;;;13.20;99.90;;;;;;5094553;28;20024;-80
2023/10/29 08:50:59;;;;;;;1.90;1.00;;;13.20;99.90;;;;;;5095088;28;20154;-80
2023/10/29 08:53:25;;;;;;;3.60;0.77;;;13.20;99.90;;;;;;5096033;28;20028;-79
2023/10/29 08:55:51;;;;;;;2.72;0.90;;;13.20;99.90;;;;;;5093876;28;20031;-79
2023/10/29 08:58:18;;;;;;;2.33;0.80;;;13.30;99.90;;;;;;5094652;28;20435;-79
2023/10/29 09:00:45;;;;;;;3.80;0.80;;;13.30;99.90;;;;;;5093806;28;20035;-80
2023/10/29 09:03:13;;;;;;;1.30;0.80;;;13.30;99.90;;;;;;5094426;28;20089;-79
2023/10/29 09:05:39;;;;;;;2.08;0.90;;;13.40;99.90;;;;;;5095049;28;20142;-80
2023/10/29 09:08:05;;;;;;;3.95;0.85;;;13.40;99.90;;;;;;5094956;28;20077;-80
2023/10/29 09:10:32;;;;;;;2.55;0.98;;;13.40;99.90;;;;;;5095472;28;20031;-80
2023/10/29 09:12:57;;;;;;;3.95;0.85;;;13.40;99.90;;;;;;5094362;28;20028;-78
2023/10/29 09:15:23;;;;;;;4.70;0.90;;;13.50;99.90;;;;;;5093697;28;20536;-79
2023/10/29 09:17:49;;;;;;;3.17;1.10;;;13.50;99.90;;;;;;5093660;28;20090;-80
2023/10/29 09:20:14;;;;;;;1.65;0.85;;;13.50;99.90;;;;;;5094282;28;20024;-79
2023/10/29 09:22:40;;;;;;;2.53;0.93;;;13.60;99.90;;;;;;5094777;28;20032;-79
2023/10/29 09:25:06;;;;;;;1.92;0.88;;;13.50;99.90;;;;;;5093395;28;20118;-79
2023/10/29 09:27:32;;;;;;;1.13;1.00;;;13.60;99.90;;;;;;5093005;28;20024;-80
2023/10/29 09:29:57;;;;;;;2.83;0.98;;;13.60;99.90;;;;;;5094716;28;20063;-79
2023/10/29 09:32:23;;;;;;;1.20;1.00;;;13.70;99.90;;;;;;5094105;28;20031;-80
2023/10/29 09:34:52;;;;;;;3.47;1.05;;;13.70;99.90;;;;;;5091224;28;20122;-82
2023/10/29 09:37:18;;;;;;;3.75;1.00;;;13.70;99.90;;;;;;5094699;28;20052;-82
2023/10/29 09:39:44;;;;;;;4.25;1.20;;;13.70;99.90;;;;;;5098055;28;20020;-78
2023/10/29 09:42:12;;;;;;;1.02;0.90;;;13.70;99.90;;;;;;5107584;28;20024;-79
2023/10/29 09:44:40;;;;;;;0.90;0.63;;;13.60;99.90;;;;;;5099400;28;20487;-79
2023/10/29 09:47:14;;;;;;;3.42;0.85;;;13.70;99.90;;;;;;5106636;28;20024;-79
2023/10/29 09:49:40;;;;;;;1.95;1.00;;;13.70;99.90;;;;;;5098067;28;20026;-79
2023/10/29 09:52:08;;;;;;;2.83;0.90;;;13.70;99.90;;;;;;5105711;28;20023;-80
2023/10/29 09:54:34;;;;;;;2.80;0.85;;;13.70;99.90;;;;;;5092651;28;20030;-78
2023/10/29 09:57:00;;;;;;;1.75;0.88;;;13.70;99.90;;;;;;5109540;28;20036;-80
2023/10/29 09:59:25;;;;;;;3.90;1.17;;;13.70;99.90;;;;;;5095781;28;20420;-79
2023/10/29 10:01:51;;;;;;;4.05;1.48;;;13.70;99.90;;;;;;5105739;28;20317;-78
2023/10/29 10:04:16;;;;;;;2.08;1.17;;;13.70;99.90;;;;;;5102705;28;20043;-79
2023/10/29 10:06:42;;;;;;;2.42;1.08;;;13.70;99.90;;;;;;5105956;28;20527;-80
2023/10/29 10:09:10;;;;;;;4.97;1.55;;;13.70;99.90;;;;;;5095573;28;20050;-82
2023/10/29 10:11:36;;;;;;;3.13;1.30;;;13.70;99.90;;;;;;5097280;28;20090;-81
2023/10/29 10:14:01;;;;;;;5.28;1.30;;;13.70;99.90;;;;;;5104558;28;20465;-81
2023/10/29 10:16:27;;;;;;;3.03;1.55;;;13.80;99.90;;;;;;5104749;28;20035;-80
2023/10/29 10:18:55;;;;;;;3.50;1.30;;;13.90;99.90;;;;;;5097506;28;20040;-81
2023/10/29 10:21:23;;;;;;;2.03;1.30;;;13.90;99.90;;;;;;5109675;28;20457;-81
2023/10/29 10:23:58;;;;;;;2.95;1.08;;;14.00;99.90;;;;;;5099031;28;20027;-81
2023/10/29 10:26:34;;;;;;;1.92;1.10;;;14.00;99.90;;;;;;5101551;28;20035;-83
2023/10/29 10:29:04;;;;;;;1.88;1.23;;;14.10;99.90;;;;;;5108400;28;20034;-81
2023/10/29 10:31:35;;;;;;;2.25;1.10;;;14.10;99.90;;;;;;5075375;28;20035;-83
2023/10/29 10:34:14;;;;;;;3.95;1.20;;;14.10;99.90;;;;;;5093060;28;20465;-82
2023/10/29 10:36:41;;;;;;;4.43;1.15;;;14.20;99.90;;;;;;5099971;28;20556;-81
2023/10/29 10:39:09;;;;;;;3.63;1.10;;;14.30;99.90;;;;;;5096455;28;20059;-82
2023/10/29 10:41:38;;;;;;;2.40;1.17;;;14.30;99.90;;;;;;5097161;28;20027;-81
2023/10/29 10:44:10;;;;;;;4.50;1.63;;;14.40;99.90;;;;;;5104332;28;20028;-81
2023/10/29 10:46:40;;;;;;;2.33;1.20;;;14.50;99.90;;;;;;5105293;28;20115;-80
2023/10/29 10:49:07;;;;;;;2.25;1.10;;;14.50;99.90;;;;;;5112635;28;20388;-81
2023/10/29 10:51:37;;;;;;;2.55;1.00;;;14.50;99.90;;;;;;5096872;28;20373;-81
2023/10/29 10:54:04;;;;;;;4.97;1.20;;;14.50;99.90;;;;;;5105403;28;20052;-81
2023/10/29 10:56:35;;;;;;;4.13;1.38;;;14.60;99.90;;;;;;5105629;28;20049;-81
2023/10/29 10:59:05;;;;;;;1.90;0.98;;;14.60;99.90;;;;;;5097484;28;20338;-80
2023/10/29 11:01:33;;;;;;;2.65;0.98;;;14.60;99.90;;;;;;5096935;28;20020;-81
2023/10/29 11:04:03;;;;;;;2.92;0.98;;;14.70;99.90;;;;;;5104762;28;20420;-81
2023/10/29 11:06:30;;;;;;;2.45;1.13;;;14.70;99.90;;;;;;5092962;28;20496;-81
2023/10/29 11:08:56;;;;;;;4.03;0.90;;;14.80;99.90;;;;;;5109186;28;20027;-81
2023/10/29 11:11:28;;;;;;;6.43;1.40;;;14.80;99.90;;;;;;5095781;28;21064;-81
2023/10/29 11:14:08;;;;;;;4.70;2.25;;;14.80;99.90;;;;;;5103346;28;20036;-81
2023/10/29 11:16:44;;;;;;;1.48;1.08;;;14.90;99.90;;;;;;5078342;28;20036;-81
2023/10/29 11:19:44;;;;;;;2.00;1.08;;;15.00;99.90;;;;;;5089198;28;20074;-80
2023/10/29 11:22:29;;;;;;;4.35;1.30;;;15.00;99.90;;;;;;5084171;28;20553;-80
2023/10/29 11:25:11;;;;;;;1.70;1.08;;;15.10;99.90;;;;;;5083649;28;20067;-81
2023/10/29 11:27:45;;;;;;;1.95;1.13;;;15.20;99.90;;;;;;5084490;28;20036;-81
2023/10/29 11:30:13;;;;;;;2.35;1.15;;;15.20;99.90;;;;;;5090687;28;20059;-81
2023/10/29 11:32:40;;;;;;;4.50;2.13;;;15.20;99.90;;;;;;5084171;28;20106;-81
2023/10/29 11:35:15;;;;;;;3.90;1.80;;;15.30;99.90;;;;;;5092319;28;20035;-82
2023/10/29 11:37:45;;;;;;;3.72;1.50;;;15.30;99.90;;;;;;5087483;28;20044;-80
2023/10/29 11:40:25;;;;;;;2.75;1.50;;;15.30;99.90;;;;;;5081363;28;20070;-79
2023/10/29 11:42:57;;;;;;;3.75;1.98;;;15.30;99.90;;;;;;5086624;28;20523;-80
2023/10/29 11:45:31;;;;;;;5.35;1.45;;;15.40;99.90;;;;;;5092157;28;20036;-79
2023/10/29 11:48:06;;;;;;;3.00;1.40;;;15.40;99.90;;;;;;5087050;28;20029;-79
2023/10/29 11:50:33;;;;;;;2.28;0.98;;;15.50;99.90;;;;;;5083963;28;20028;-80
2023/10/29 11:52:58;;;;;;;3.05;1.10;;;15.50;99.90;;;;;;5084683;28;20086;-80
2023/10/29 11:55:28;;;;;;;2.60;1.40;;;15.60;99.90;;;;;;5098426;28;20429;-80
2023/10/29 11:57:54;;;;;;;2.17;1.40;;;15.60;99.90;;;;;;5103652;28;20513;-79
2023/10/29 12:00:23;;;;;;;2.45;1.17;;;15.50;99.90;;;;;;5105778;28;20048;-80
2023/10/29 12:02:49;;;;;;;1.80;1.20;;;15.40;99.90;;;;;;5096515;28;20028;-79
2023/10/29 12:05:15;;;;;;;4.28;1.73;;;15.40;99.90;;;;;;5107174;28;20028;-81
2023/10/29 12:07:41;;;;;;;4.00;1.10;;;15.30;99.90;;;;;;5110987;28;20059;-81
2023/10/29 12:10:07;;;;;;;1.80;1.00;;;15.40;99.90;;;;;;5104427;28;20376;-80
2023/10/29 12:12:33;;;;;;;2.65;1.70;;;15.30;99.90;;;;;;5102600;28;20036;-81
2023/10/29 12:14:59;;;;;;;3.67;1.30;;;15.30;99.90;;;;;;5094955;28;20035;-80
2023/10/29 12:17:25;;;;;;;3.28;1.20;;;15.30;99.90;;;;;;5113338;28;20028;-79
2023/10/29 12:19:50;;;;;;;2.17;1.10;;;15.40;99.90;;;;;;5102565;28;20486;-80
2023/10/29 12:22:24;;;;;;;2.40;1.30;;;15.40;99.90;;;;;;5111407;28;20051;-82
2023/10/29 12:25:00;;;;;;;6.97;1.20;;;15.50;99.90;;;;;;5100415;28;20028;-82
2023/10/29 12:27:27;;;;;;;2.53;1.00;;;15.60;99.90;;;;;;5112170;28;20062;-82
2023/10/29 12:29:53;;;;;;;6.18;0.98;;;15.70;99.90;;;;;;5094913;28;20031;-81
2023/10/29 12:32:25;;;;;;;3.17;1.10;;;15.70;99.90;;;;;;5106553;28;20027;-83
2023/10/29 12:34:56;;;;;;;4.20;1.10;;;15.70;99.90;;;;;;5099178;28;20461;-81
2023/10/29 12:37:30;;;;;;;5.55;1.23;;;15.60;99.90;;;;;;5110948;28;20546;-81
2023/10/29 12:39:59;;;;;;;2.63;1.20;;;15.60;99.90;;;;;;5103077;28;20111;-80
2023/10/29 12:42:51;;;;;;;2.13;1.17;;;15.60;99.90;;;;;;5102837;28;20024;-81
2023/10/29 12:45:28;;;;;;;2.13;1.00;;;15.50;99.90;;;;;;5114260;28;20034;-79
2023/10/29 12:48:14;;;;;;;4.00;1.40;;;15.60;99.90;;;;;;5107394;28;20036;-80